Aérodrome :
LOGIN :

S'inscrire | Disclaimer

   EN    FR    IT 

 










Légende :    VFR   VFR Marginal   IFR   IFR Intensif   IFR Très Intensif
Visi : 
Plafond : 
>= 8 km
>= 3000ft
5 à 8 km
1000 à 3000 ft
1500m à 5 km
500 à 1000 ft
800 à 1500m
200 à 500 ft
< 800m
< 200 ft
Symboles :   Orages  Brouillard  Fortes neiges  Fortes précipitations  Vent > 20 kt
SIGMETs :   Divers  Orages  Givrage  Turbulence  Onde Orograph.  Cendres Volcan.






- Altitude de l'aérodrome : 218 ft
- Code IATA : LBG


LFPB - Paris / Le Bourget

DERNIER METAR :
  • 240030Z AUTO 05006KT 5000 BR FEW007 OVC200 M01/M01 Q1025 TEMPO 0500 FG VV///

METARs EXPIRÉS :
  • 240000Z AUTO 03007KT 4900 BR NSC M00/M01 Q1025 TEMPO 0500 FG VV///
  • 232330Z AUTO 02005KT 5000 BR NSC M00/M01 Q1025 TEMPO 0500 FG VV///
  • 232300Z AUTO 01003KT 4500 BR NSC M01/M01 Q1025 TEMPO 0500 FG VV///
  • 232230Z AUTO 05002KT 3600 1500 R09/1200D BR NSC M01/M02 Q1025 TEMPO 0500 FG VV///
  • 232200Z AUTO 02004KT 3800 BR BKN003 00/M01 Q1025 BECMG 2000 BR BKN005

TAF TAF LFPB
Valide du 24 à 00h jusqu'au 25 à 00h UTC


232300Z 2400/2424 05005KT 2000 BR SCT002
TEMPO 2400/2410 0500 FG BKN002
PROB40
TEMPO 2400/2407 FZFG VV///
BECMG 2409/2412 6000 NSW NSC
PROB30
TEMPO 2410/2419 BKN008
BECMG 2419/2421 BKN008
ATIS : +33 1 48 62 43 92



MET'MAP, la Météo Aéronautique d'un coup d'oeil ! - Copyright ORBIFLY Décembre 2007 - Disclaimer

ORBIFLY MET'MAP TEAM :

Programmation & Développement : Alexandra Zaïnal
Sur une idée originale de : Baudouin d'Aumeries
Assistance à la programmation : Marc-Olivier Méhu
Soutien technique & logistique : Manuel Goepfert

Contact : metmap@orbifly.com




SOURCES & CREDITS :

   NOAA